sensor_id;sensor_type;location;lat;lon;timestamp;pressure;altitude;pressure_sealevel;temperature;humidity
42169;BME280;27838;43.858;25.974;2023-11-21T00:02:22;100812.63;;;13.19;51.86
42169;BME280;27838;43.858;25.974;2023-11-21T00:04:49;100810.03;;;13.18;51.76
42169;BME280;27838;43.858;25.974;2023-11-21T00:07:15;100811.75;;;13.17;51.75
42169;BME280;27838;43.858;25.974;2023-11-21T00:09:42;100814.44;;;13.13;51.93
42169;BME280;27838;43.858;25.974;2023-11-21T00:12:08;100810.97;;;13.12;51.92
42169;BME280;27838;43.858;25.974;2023-11-21T00:14:36;100810.97;;;13.11;52.26
42169;BME280;27838;43.858;25.974;2023-11-21T00:17:03;100810.97;;;13.11;51.95
42169;BME280;27838;43.858;25.974;2023-11-21T00:19:30;100813.53;;;13.14;51.91
42169;BME280;27838;43.858;25.974;2023-11-21T00:21:57;100811.81;;;13.14;51.94
42169;BME280;27838;43.858;25.974;2023-11-21T00:24:24;100814.41;;;13.16;51.65
42169;BME280;27838;43.858;25.974;2023-11-21T00:26:51;100813.50;;;13.17;51.60
42169;BME280;27838;43.858;25.974;2023-11-21T00:29:18;100809.19;;;13.13;51.61
42169;BME280;27838;43.858;25.974;2023-11-21T00:31:44;100813.53;;;13.14;51.81
42169;BME280;27838;43.858;25.974;2023-11-21T00:34:12;100811.81;;;13.16;51.41
42169;BME280;27838;43.858;25.974;2023-11-21T00:36:39;100818.84;;;13.08;51.82
42169;BME280;27838;43.858;25.974;2023-11-21T00:39:06;100816.16;;;13.14;51.84
42169;BME280;27838;43.858;25.974;2023-11-21T00:41:33;100802.19;;;13.18;51.98
42169;BME280;27838;43.858;25.974;2023-11-21T00:44:01;100809.09;;;13.22;51.37
42169;BME280;27838;43.858;25.974;2023-11-21T00:46:28;100803.84;;;13.25;51.26
42169;BME280;27838;43.858;25.974;2023-11-21T00:48:55;100809.09;;;13.25;51.44
42169;BME280;27838;43.858;25.974;2023-11-21T00:51:22;100801.22;;;13.28;51.07
42169;BME280;27838;43.858;25.974;2023-11-21T00:53:49;100810.81;;;13.26;50.95
42169;BME280;27838;43.858;25.974;2023-11-21T00:56:16;100805.63;;;13.23;51.11
42169;BME280;27838;43.858;25.974;2023-11-21T00:58:43;100803.84;;;13.25;51.10
42169;BME280;27838;43.858;25.974;2023-11-21T01:01:12;100803.81;;;13.28;51.05
42169;BME280;27838;43.858;25.974;2023-11-21T01:03:38;100808.19;;;13.28;50.43
42169;BME280;27838;43.858;25.974;2023-11-21T01:06:05;100804.72;;;13.22;50.97
42169;BME280;27838;43.858;25.974;2023-11-21T01:08:33;100802.19;;;13.18;50.54
42169;BME280;27838;43.858;25.974;2023-11-21T01:11:01;100802.19;;;13.18;50.44
42169;BME280;27838;43.858;25.974;2023-11-21T01:13:27;100810.91;;;13.17;50.49
42169;BME280;27838;43.858;25.974;2023-11-21T01:15:55;100807.47;;;13.12;50.51
42169;BME280;27838;43.858;25.974;2023-11-21T01:18:21;100798.75;;;13.10;50.63
42169;BME280;27838;43.858;25.974;2023-11-21T01:20:50;100810.97;;;13.11;50.47
42169;BME280;27838;43.858;25.974;2023-11-21T01:23:18;100807.47;;;13.12;50.13
42169;BME280;27838;43.858;25.974;2023-11-21T01:25:45;100800.50;;;13.09;50.22
42169;BME280;27838;43.858;25.974;2023-11-21T01:28:11;100799.63;;;13.10;49.94
42169;BME280;27838;43.858;25.974;2023-11-21T01:30:38;100800.44;;;13.15;49.86
42169;BME280;27838;43.858;25.974;2023-11-21T01:33:04;100792.59;;;13.15;49.79
42169;BME280;27838;43.858;25.974;2023-11-21T01:35:31;100778.66;;;13.13;49.81
42169;BME280;27838;43.858;25.974;2023-11-21T01:37:58;100782.09;;;13.18;49.83
42169;BME280;27838;43.858;25.974;2023-11-21T01:40:24;100780.34;;;13.17;49.97
42169;BME280;27838;43.858;25.974;2023-11-21T01:42:53;100776.00;;;13.18;49.68
42169;BME280;27838;43.858;25.974;2023-11-21T01:45:20;100772.47;;;13.22;49.62
42169;BME280;27838;43.858;25.974;2023-11-21T01:47:46;100780.31;;;13.23;49.69
42169;BME280;27838;43.858;25.974;2023-11-21T01:50:15;100773.31;;;13.26;49.17
42169;BME280;27838;43.858;25.974;2023-11-21T01:52:44;100779.41;;;13.26;49.52
42169;BME280;27838;43.858;25.974;2023-11-21T01:55:11;100782.06;;;13.25;49.28
42169;BME280;27838;43.858;25.974;2023-11-21T01:57:38;100778.56;;;13.22;49.21
42169;BME280;27838;43.858;25.974;2023-11-21T02:00:05;100778.59;;;13.21;49.56
42169;BME280;27838;43.858;25.974;2023-11-21T02:02:47;100777.81;;;13.13;49.73
42169;BME280;27838;43.858;25.974;2023-11-21T02:05:15;100769.13;;;13.08;49.27
42169;BME280;27838;43.858;25.974;2023-11-21T02:07:42;100771.75;;;13.06;49.37
42169;BME280;27838;43.858;25.974;2023-11-21T02:10:09;100781.28;;;13.10;49.46
42169;BME280;27838;43.858;25.974;2023-11-21T02:12:39;100782.22;;;13.06;49.27
42169;BME280;27838;43.858;25.974;2023-11-21T02:15:08;100772.66;;;13.03;49.46
42169;BME280;27838;43.858;25.974;2023-11-21T02:17:43;100779.63;;;13.04;49.31
42169;BME280;27838;43.858;25.974;2023-11-21T02:20:12;100773.53;;;13.02;49.65
42169;BME280;27838;43.858;25.974;2023-11-21T02:22:41;100770.06;;;12.99;49.29
42169;BME280;27838;43.858;25.974;2023-11-21T02:25:08;100761.31;;;13.00;49.69
42169;BME280;27838;43.858;25.974;2023-11-21T02:27:35;100770.94;;;12.99;49.42
42169;BME280;27838;43.858;25.974;2023-11-21T02:30:03;100767.50;;;12.94;49.45
42169;BME280;27838;43.858;25.974;2023-11-21T02:32:30;100766.66;;;12.92;49.42
42169;BME280;27838;43.858;25.974;2023-11-21T02:34:57;100770.09;;;12.94;49.56
42169;BME280;27838;43.858;25.974;2023-11-21T02:37:26;100766.63;;;12.95;49.48
42169;BME280;27838;43.858;25.974;2023-11-21T02:39:53;100765.72;;;12.98;49.49
42169;BME280;27838;43.858;25.974;2023-11-21T02:42:19;100769.22;;;12.98;49.25
42169;BME280;27838;43.858;25.974;2023-11-21T02:44:46;100764.84;;;13.00;49.11
42169;BME280;27838;43.858;25.974;2023-11-21T02:47:12;100773.56;;;12.98;48.74
42169;BME280;27838;43.858;25.974;2023-11-21T02:49:39;100774.50;;;12.92;48.92
42169;BME280;27838;43.858;25.974;2023-11-21T02:52:06;100769.28;;;12.89;48.98
42169;BME280;27838;43.858;25.974;2023-11-21T02:54:32;100769.28;;;12.89;49.47
42169;BME280;27838;43.858;25.974;2023-11-21T02:57:02;100769.28;;;12.88;49.33
42169;BME280;27838;43.858;25.974;2023-11-21T02:59:28;100772.75;;;12.91;49.12
42169;BME280;27838;43.858;25.974;2023-11-21T03:01:55;100763.19;;;12.90;48.94
42169;BME280;27838;43.858;25.974;2023-11-21T03:04:22;100766.63;;;12.94;49.08
42169;BME280;27838;43.858;25.974;2023-11-21T03:06:48;100764.88;;;12.94;48.74
42169;BME280;27838;43.858;25.974;2023-11-21T03:09:15;100770.13;;;12.93;48.98
42169;BME280;27838;43.858;25.974;2023-11-21T03:11:41;100769.25;;;12.94;49.03
42169;BME280;27838;43.858;25.974;2023-11-21T03:14:08;100772.75;;;12.91;49.10
42169;BME280;27838;43.858;25.974;2023-11-21T03:16:35;100764.06;;;12.89;48.85
42169;BME280;27838;43.858;25.974;2023-11-21T03:19:03;100772.75;;;12.91;49.07
42169;BME280;27838;43.858;25.974;2023-11-21T03:21:30;100772.72;;;12.94;48.85
42169;BME280;27838;43.858;25.974;2023-11-21T03:23:57;100766.63;;;12.94;48.82
42169;BME280;27838;43.858;25.974;2023-11-21T03:26:25;100776.19;;;12.96;48.86
42169;BME280;27838;43.858;25.974;2023-11-21T03:28:51;100770.09;;;12.97;48.84
42169;BME280;27838;43.858;25.974;2023-11-21T03:31:18;100772.69;;;12.97;48.51
42169;BME280;27838;43.858;25.974;2023-11-21T03:33:45;100779.72;;;12.95;48.49
42169;BME280;27838;43.858;25.974;2023-11-21T03:36:12;100774.50;;;12.92;48.87
42169;BME280;27838;43.858;25.974;2023-11-21T03:38:40;100776.25;;;12.93;48.81
42169;BME280;27838;43.858;25.974;2023-11-21T03:41:07;100789.34;;;12.92;48.91
42169;BME280;27838;43.858;25.974;2023-11-21T03:43:36;100784.97;;;12.92;48.65
42169;BME280;27838;43.858;25.974;2023-11-21T03:46:03;100783.19;;;12.94;48.80
42169;BME280;27838;43.858;25.974;2023-11-21T03:48:29;100785.81;;;12.94;48.63
42169;BME280;27838;43.858;25.974;2023-11-21T03:50:58;100777.97;;;12.93;48.73
42169;BME280;27838;43.858;25.974;2023-11-21T03:53:24;100782.34;;;12.94;48.56
42169;BME280;27838;43.858;25.974;2023-11-21T03:55:51;100782.34;;;12.94;48.39
42169;BME280;27838;43.858;25.974;2023-11-21T03:58:17;100781.50;;;12.90;48.39
42169;BME280;27838;43.858;25.974;2023-11-21T04:00:44;100786.72;;;12.89;48.76
42169;BME280;27838;43.858;25.974;2023-11-21T04:03:10;100786.75;;;12.85;48.72
42169;BME280;27838;43.858;25.974;2023-11-21T04:05:38;100785.03;;;12.86;48.58
42169;BME280;27838;43.858;25.974;2023-11-21T04:08:05;100792.88;;;12.86;48.55
42169;BME280;27838;43.858;25.974;2023-11-21T04:10:32;100792.88;;;12.83;48.51
42169;BME280;27838;43.858;25.974;2023-11-21T04:12:58;100795.50;;;12.86;48.76
42169;BME280;27838;43.858;25.974;2023-11-21T04:15:25;100798.97;;;12.85;48.73
42169;BME280;27838;43.858;25.974;2023-11-21T04:17:52;100794.66;;;12.81;48.52
42169;BME280;27838;43.858;25.974;2023-11-21T04:20:18;100804.19;;;12.85;48.78
42169;BME280;27838;43.858;25.974;2023-11-21T04:22:45;100798.06;;;12.88;48.38
42169;BME280;27838;43.858;25.974;2023-11-21T04:25:14;100792.84;;;12.88;48.77
42169;BME280;27838;43.858;25.974;2023-11-21T04:27:41;100792.84;;;12.88;48.41
42169;BME280;27838;43.858;25.974;2023-11-21T04:30:10;100793.72;;;12.88;48.71
42169;BME280;27838;43.858;25.974;2023-11-21T04:32:37;100788.50;;;12.87;48.25
42169;BME280;27838;43.858;25.974;2023-11-21T04:35:04;100797.22;;;12.87;48.62
42169;BME280;27838;43.858;25.974;2023-11-21T04:37:31;100798.06;;;12.89;48.30
42169;BME280;27838;43.858;25.974;2023-11-21T04:39:58;100798.91;;;12.93;48.09
42169;BME280;27838;43.858;25.974;2023-11-21T04:42:24;100785.81;;;12.94;48.19
42169;BME280;27838;43.858;25.974;2023-11-21T04:44:51;100791.03;;;12.96;48.23
42169;BME280;27838;43.858;25.974;2023-11-21T04:47:18;100801.47;;;12.99;48.08
42169;BME280;27838;43.858;25.974;2023-11-21T04:49:45;100804.97;;;12.98;48.08
42169;BME280;27838;43.858;25.974;2023-11-21T04:52:13;100797.09;;;12.99;47.82
42169;BME280;27838;43.858;25.974;2023-11-21T04:54:40;100806.69;;;13.00;47.69
42169;BME280;27838;43.858;25.974;2023-11-21T04:57:08;100811.09;;;12.98;47.61
42169;BME280;27838;43.858;25.974;2023-11-21T04:59:34;100798.84;;;13.00;47.83
42169;BME280;27838;43.858;25.974;2023-11-21T05:02:01;100803.16;;;13.04;47.49
42169;BME280;27838;43.858;25.974;2023-11-21T05:04:28;100801.41;;;13.07;47.53
42169;BME280;27838;43.858;25.974;2023-11-21T05:06:54;100799.63;;;13.09;47.40
42169;BME280;27838;43.858;25.974;2023-11-21T05:09:21;100797.88;;;13.11;47.60
42169;BME280;27838;43.858;25.974;2023-11-21T05:11:48;100803.13;;;13.11;47.41
42169;BME280;27838;43.858;25.974;2023-11-21T05:14:15;100799.59;;;13.13;47.12
42169;BME280;27838;43.858;25.974;2023-11-21T05:16:42;100798.72;;;13.16;47.13
42169;BME280;27838;43.858;25.974;2023-11-21T05:19:08;100786.50;;;13.15;47.30
42169;BME280;27838;43.858;25.974;2023-11-21T05:21:35;100798.63;;;13.22;46.81
42169;BME280;27838;43.858;25.974;2023-11-21T05:24:02;100800.34;;;13.26;46.94
42169;BME280;27838;43.858;25.974;2023-11-21T05:26:28;100795.06;;;13.29;46.84
42169;BME280;27838;43.858;25.974;2023-11-21T05:28:55;100802.94;;;13.32;47.10
42169;BME280;27838;43.858;25.974;2023-11-21T05:31:21;100807.25;;;13.35;46.66
42169;BME280;27838;43.858;25.974;2023-11-21T05:33:48;100810.75;;;13.37;46.65
42169;BME280;27838;43.858;25.974;2023-11-21T05:36:14;100805.50;;;13.38;46.65
42169;BME280;27838;43.858;25.974;2023-11-21T05:38:41;100802.84;;;13.40;46.63
42169;BME280;27838;43.858;25.974;2023-11-21T05:41:08;100803.66;;;13.45;46.33
42169;BME280;27838;43.858;25.974;2023-11-21T05:43:36;100801.94;;;13.46;46.48
42169;BME280;27838;43.858;25.974;2023-11-21T05:46:02;100799.31;;;13.47;46.56
42169;BME280;27838;43.858;25.974;2023-11-21T05:48:29;100808.88;;;13.48;46.69
42169;BME280;27838;43.858;25.974;2023-11-21T05:50:56;100807.13;;;13.49;46.70
42169;BME280;27838;43.858;25.974;2023-11-21T05:53:24;100811.47;;;13.50;46.95
42169;BME280;27838;43.858;25.974;2023-11-21T05:55:50;100815.81;;;13.52;47.05
42169;BME280;27838;43.858;25.974;2023-11-21T05:58:17;100816.69;;;13.54;46.99
42169;BME280;27838;43.858;25.974;2023-11-21T06:00:44;100822.75;;;13.59;46.85
42169;BME280;27838;43.858;25.974;2023-11-21T06:03:10;100817.44;;;13.63;46.29
42169;BME280;27838;43.858;25.974;2023-11-21T06:05:37;100830.50;;;13.66;46.28
42169;BME280;27838;43.858;25.974;2023-11-21T06:08:04;100833.97;;;13.69;46.50
42169;BME280;27838;43.858;25.974;2023-11-21T06:10:31;100838.31;;;13.72;46.45
42169;BME280;27838;43.858;25.974;2023-11-21T06:12:58;100848.78;;;13.73;46.30
42169;BME280;27838;43.858;25.974;2023-11-21T06:15:24;100848.78;;;13.73;47.05
42169;BME280;27838;43.858;25.974;2023-11-21T06:17:51;100851.41;;;13.73;47.20
42169;BME280;27838;43.858;25.974;2023-11-21T06:20:19;100852.28;;;13.72;47.50
42169;BME280;27838;43.858;25.974;2023-11-21T06:22:48;100850.59;;;13.68;47.63
42169;BME280;27838;43.858;25.974;2023-11-21T06:25:15;100855.88;;;13.62;48.02
42169;BME280;27838;43.858;25.974;2023-11-21T06:27:44;100855.06;;;13.54;48.46
42169;BME280;27838;43.858;25.974;2023-11-21T06:30:14;100849.94;;;13.46;48.55
42169;BME280;27838;43.858;25.974;2023-11-21T06:32:41;100852.56;;;13.43;49.32
42169;BME280;27838;43.858;25.974;2023-11-21T06:35:11;100847.41;;;13.38;49.28
42169;BME280;27838;43.858;25.974;2023-11-21T06:37:38;100848.19;;;13.44;49.07
42169;BME280;27838;43.858;25.974;2023-11-21T06:40:05;100840.34;;;13.44;48.66
42169;BME280;27838;43.858;25.974;2023-11-21T06:42:33;100851.63;;;13.50;48.83
42169;BME280;27838;43.858;25.974;2023-11-21T06:44:59;100849.00;;;13.52;49.15
42169;BME280;27838;43.858;25.974;2023-11-21T06:47:29;100858.50;;;13.59;48.63
42169;BME280;27838;43.858;25.974;2023-11-21T06:49:56;100861.09;;;13.65;48.89
42169;BME280;27838;43.858;25.974;2023-11-21T06:52:22;100861.06;;;13.68;49.60
42169;BME280;27838;43.858;25.974;2023-11-21T06:54:49;100849.69;;;13.68;49.86
42169;BME280;27838;43.858;25.974;2023-11-21T06:57:16;100855.75;;;13.74;48.80
42169;BME280;27838;43.858;25.974;2023-11-21T06:59:42;100852.19;;;13.78;48.48
42169;BME280;27838;43.858;25.974;2023-11-21T07:02:09;100857.41;;;13.82;49.08
42169;BME280;27838;43.858;25.974;2023-11-21T07:04:36;100860.00;;;13.83;49.97
42169;BME280;27838;43.858;25.974;2023-11-21T07:07:03;100856.56;;;13.79;50.26
42169;BME280;27838;43.858;25.974;2023-11-21T07:09:32;100851.34;;;13.75;50.58
42169;BME280;27838;43.858;25.974;2023-11-21T07:11:58;100860.09;;;13.77;50.45
42169;BME280;27838;43.858;25.974;2023-11-21T07:14:25;100860.94;;;13.77;50.42
42169;BME280;27838;43.858;25.974;2023-11-21T07:16:51;100850.44;;;13.81;50.45
42169;BME280;27838;43.858;25.974;2023-11-21T07:19:18;100842.56;;;13.82;50.02
42169;BME280;27838;43.858;25.974;2023-11-21T07:21:46;100847.78;;;13.84;50.03
42169;BME280;27838;43.858;25.974;2023-11-21T07:24:15;100842.53;;;13.84;49.97
42169;BME280;27838;43.858;25.974;2023-11-21T07:26:42;100845.16;;;13.84;50.30
42169;BME280;27838;43.858;25.974;2023-11-21T07:29:09;100844.22;;;13.91;49.79
42169;BME280;27838;43.858;25.974;2023-11-21T07:31:37;100845.00;;;13.96;49.09
42169;BME280;27838;43.858;25.974;2023-11-21T07:34:03;100850.16;;;14.04;48.18
42169;BME280;27838;43.858;25.974;2023-11-21T07:36:30;100844.78;;;14.14;47.18
42169;BME280;27838;43.858;25.974;2023-11-21T07:38:56;100844.66;;;14.24;47.35
42169;BME280;27838;43.858;25.974;2023-11-21T07:41:23;100843.66;;;14.34;46.23
42169;BME280;27838;43.858;25.974;2023-11-21T07:43:49;100846.19;;;14.40;45.23
42169;BME280;27838;43.858;25.974;2023-11-21T07:46:16;100847.75;;;14.52;45.48
42169;BME280;27838;43.858;25.974;2023-11-21T07:48:43;100850.31;;;14.60;44.57
42169;BME280;27838;43.858;25.974;2023-11-21T07:51:11;100841.50;;;14.64;44.70
42169;BME280;27838;43.858;25.974;2023-11-21T07:53:38;100837.84;;;14.76;44.81
42169;BME280;27838;43.858;25.974;2023-11-21T07:56:06;100840.34;;;14.83;44.44
42169;BME280;27838;43.858;25.974;2023-11-21T07:58:34;100836.78;;;14.87;44.52
42169;BME280;27838;43.858;25.974;2023-11-21T08:01:04;100833.13;;;14.98;44.32
42169;BME280;27838;43.858;25.974;2023-11-21T08:03:31;100839.97;;;15.08;44.75
42169;BME280;27838;43.858;25.974;2023-11-21T08:06:00;100837.22;;;15.14;45.81
42169;BME280;27838;43.858;25.974;2023-11-21T08:08:29;100837.22;;;15.14;46.70
42169;BME280;27838;43.858;25.974;2023-11-21T08:10:55;100840.63;;;15.19;46.49
42169;BME280;27838;43.858;25.974;2023-11-21T08:13:26;100832.72;;;15.22;46.47
42169;BME280;27838;43.858;25.974;2023-11-21T08:15:57;100838.75;;;15.27;46.59
42169;BME280;27838;43.858;25.974;2023-11-21T08:18:28;100837.91;;;15.25;46.56
42169;BME280;27838;43.858;25.974;2023-11-21T08:20:55;100844.78;;;15.33;46.79
42169;BME280;27838;43.858;25.974;2023-11-21T08:23:22;100843.84;;;15.35;46.68
42169;BME280;27838;43.858;25.974;2023-11-21T08:25:51;100843.75;;;15.41;46.58
42169;BME280;27838;43.858;25.974;2023-11-21T08:28:18;100841.84;;;15.48;46.33
42169;BME280;27838;43.858;25.974;2023-11-21T08:30:44;100847.91;;;15.53;46.16
42169;BME280;27838;43.858;25.974;2023-11-21T08:33:11;100851.25;;;15.61;46.22
42169;BME280;27838;43.858;25.974;2023-11-21T08:35:38;100836.25;;;15.68;45.70
42169;BME280;27838;43.858;25.974;2023-11-21T08:38:05;100837.84;;;15.77;45.39
42169;BME280;27838;43.858;25.974;2023-11-21T08:40:31;100831.56;;;15.85;44.77
42169;BME280;27838;43.858;25.974;2023-11-21T08:42:58;100832.28;;;15.94;45.03
42169;BME280;27838;43.858;25.974;2023-11-21T08:45:25;100833.88;;;16.01;44.34
42169;BME280;27838;43.858;25.974;2023-11-21T08:47:52;100828.38;;;16.12;44.43
42169;BME280;27838;43.858;25.974;2023-11-21T08:50:18;100818.56;;;16.20;42.60
42169;BME280;27838;43.858;25.974;2023-11-21T08:52:45;100821.88;;;16.28;42.53
42169;BME280;27838;43.858;25.974;2023-11-21T08:55:12;100809.50;;;16.33;41.98
42169;BME280;27838;43.858;25.974;2023-11-21T08:57:39;100800.69;;;16.36;42.02
42169;BME280;27838;43.858;25.974;2023-11-21T09:00:07;100811.94;;;16.42;42.44
42169;BME280;27838;43.858;25.974;2023-11-21T09:02:39;100804.06;;;16.41;42.69
42169;BME280;27838;43.858;25.974;2023-11-21T09:05:08;100809.31;;;16.42;43.22
42169;BME280;27838;43.858;25.974;2023-11-21T09:07:39;100799.66;;;16.43;44.07
42169;BME280;27838;43.858;25.974;2023-11-21T09:10:06;100804.84;;;16.46;44.58
42169;BME280;27838;43.858;25.974;2023-11-21T09:12:35;100803.88;;;16.49;44.86
42169;BME280;27838;43.858;25.974;2023-11-21T09:15:06;100807.34;;;16.51;45.07
42169;BME280;27838;43.858;25.974;2023-11-21T09:17:35;100798.50;;;16.55;44.86
42169;BME280;27838;43.858;25.974;2023-11-21T09:20:02;100798.34;;;16.61;44.78
42169;BME280;27838;43.858;25.974;2023-11-21T09:22:30;100793.00;;;16.64;44.13
42169;BME280;27838;43.858;25.974;2023-11-21T09:24:57;100787.59;;;16.70;43.39
42169;BME280;27838;43.858;25.974;2023-11-21T09:27:24;100782.31;;;16.70;42.79
42169;BME280;27838;43.858;25.974;2023-11-21T09:29:52;100777.03;;;16.72;42.44
42169;BME280;27838;43.858;25.974;2023-11-21T09:32:19;100790.94;;;16.77;42.67
42169;BME280;27838;43.858;25.974;2023-11-21T09:34:47;100783.03;;;16.77;42.55
42169;BME280;27838;43.858;25.974;2023-11-21T09:37:14;100779.59;;;16.75;42.61
42169;BME280;27838;43.858;25.974;2023-11-21T09:39:40;100775.97;;;16.79;42.66
42169;BME280;27838;43.858;25.974;2023-11-21T09:44:42;100773.75;;;16.98;42.75
42169;BME280;27838;43.858;25.974;2023-11-21T09:47:14;100774.28;;;17.12;42.70
42169;BME280;27838;43.858;25.974;2023-11-21T09:49:47;100768.50;;;17.31;42.30
42169;BME280;27838;43.858;25.974;2023-11-21T09:52:25;100755.72;;;17.48;40.36
42169;BME280;27838;43.858;25.974;2023-11-21T09:54:52;100756.25;;;17.61;39.75
42169;BME280;27838;43.858;25.974;2023-11-21T09:57:20;100758.06;;;17.59;39.86
42169;BME280;27838;43.858;25.974;2023-11-21T09:59:51;100750.72;;;17.70;40.15
42169;BME280;27838;43.858;25.974;2023-11-21T10:02:18;100748.66;;;17.80;40.33
42169;BME280;27838;43.858;25.974;2023-11-21T10:04:46;100742.28;;;17.89;39.98
42169;BME280;27838;43.858;25.974;2023-11-21T10:07:16;100740.28;;;17.97;39.55
42169;BME280;27838;43.858;25.974;2023-11-21T10:09:44;100733.81;;;18.07;39.20
42169;BME280;27838;43.858;25.974;2023-11-21T10:12:11;100725.97;;;18.06;38.43
42169;BME280;27838;43.858;25.974;2023-11-21T10:14:41;100720.38;;;18.15;38.72
42169;BME280;27838;43.858;25.974;2023-11-21T10:17:10;100713.97;;;18.24;38.92
42169;BME280;27838;43.858;25.974;2023-11-21T10:19:38;100723.59;;;18.25;38.35
42169;BME280;27838;43.858;25.974;2023-11-21T10:22:05;100724.50;;;18.24;38.13
42169;BME280;27838;43.858;25.974;2023-11-21T10:24:34;100721.19;;;18.17;38.59
42169;BME280;27838;43.858;25.974;2023-11-21T10:27:00;100729.19;;;18.16;38.70
42169;BME280;27838;43.858;25.974;2023-11-21T10:29:29;100727.50;;;18.13;38.71
42169;BME280;27838;43.858;25.974;2023-11-21T10:32:02;100713.50;;;18.11;39.21
42169;BME280;27838;43.858;25.974;2023-11-21T10:34:29;100711.72;;;18.11;39.11
42169;BME280;27838;43.858;25.974;2023-11-21T10:36:55;100718.72;;;18.13;38.96
42169;BME280;27838;43.858;25.974;2023-11-21T10:39:24;100717.06;;;18.08;38.95
42169;BME280;27838;43.858;25.974;2023-11-21T10:41:54;100713.66;;;18.05;39.49
42169;BME280;27838;43.858;25.974;2023-11-21T10:44:21;100702.34;;;18.01;39.34
42169;BME280;27838;43.858;25.974;2023-11-21T10:46:53;100704.13;;;18.01;39.69
42169;BME280;27838;43.858;25.974;2023-11-21T10:49:22;100706.47;;;18.10;39.69
42169;BME280;27838;43.858;25.974;2023-11-21T10:51:52;100698.34;;;18.18;39.74
42169;BME280;27838;43.858;25.974;2023-11-21T10:54:25;100697.38;;;18.20;39.20
42169;BME280;27838;43.858;25.974;2023-11-21T10:57:00;100699.09;;;18.21;38.82
42169;BME280;27838;43.858;25.974;2023-11-21T10:59:29;100693.56;;;18.29;38.77
42169;BME280;27838;43.858;25.974;2023-11-21T11:01:57;100689.84;;;18.35;37.71
42169;BME280;27838;43.858;25.974;2023-11-21T11:04:27;100688.81;;;18.40;38.07
42169;BME280;27838;43.858;25.974;2023-11-21T11:06:58;100681.72;;;18.42;37.88
42169;BME280;27838;43.858;25.974;2023-11-21T11:09:30;100672.81;;;18.45;38.13
42169;BME280;27838;43.858;25.974;2023-11-21T11:11:58;100674.44;;;18.49;37.34
42169;BME280;27838;43.858;25.974;2023-11-21T11:14:25;100672.75;;;18.46;37.42
42169;BME280;27838;43.858;25.974;2023-11-21T11:16:54;100667.53;;;18.45;37.41
42169;BME280;27838;43.858;25.974;2023-11-21T11:19:21;100664.47;;;18.57;37.66
42169;BME280;27838;43.858;25.974;2023-11-21T11:38:34;100638.34;;;18.75;36.53
42169;BME280;27838;43.858;25.974;2023-11-21T11:41:02;100631.41;;;18.72;36.67
42169;BME280;27838;43.858;25.974;2023-11-21T11:43:30;100626.25;;;18.69;37.00
42169;BME280;27838;43.858;25.974;2023-11-21T11:45:58;100628.78;;;18.72;37.54
42169;BME280;27838;43.858;25.974;2023-11-21T11:48:25;100622.50;;;18.75;36.37
42169;BME280;27838;43.858;25.974;2023-11-21T11:51:06;100627.69;;;18.78;36.81
42169;BME280;27838;43.858;25.974;2023-11-21T11:53:43;100611.94;;;18.75;36.86
42169;BME280;27838;43.858;25.974;2023-11-21T11:56:34;100609.31;;;18.75;36.69
42169;BME280;27838;43.858;25.974;2023-11-21T11:59:03;100608.25;;;18.82;36.75
42169;BME280;27838;43.858;25.974;2023-11-21T12:01:32;100605.41;;;18.86;36.65
42169;BME280;27838;43.858;25.974;2023-11-21T12:06:40;100599.88;;;18.94;36.94
42169;BME280;27838;43.858;25.974;2023-11-21T12:09:22;100598.72;;;19.01;36.47
42169;BME280;27838;43.858;25.974;2023-11-21T12:11:49;100592.50;;;19.02;36.60
42169;BME280;27838;43.858;25.974;2023-11-21T12:14:16;100593.25;;;19.06;36.06
42169;BME280;27838;43.858;25.974;2023-11-21T12:16:44;100592.34;;;19.07;36.34
42169;BME280;27838;43.858;25.974;2023-11-21T12:19:11;100587.00;;;19.09;35.83
42169;BME280;27838;43.858;25.974;2023-11-21T12:21:38;100586.81;;;19.13;35.81
42169;BME280;27838;43.858;25.974;2023-11-21T12:24:06;100572.75;;;19.13;35.84
42169;BME280;27838;43.858;25.974;2023-11-21T12:26:35;100575.22;;;19.17;36.02
42169;BME280;27838;43.858;25.974;2023-11-21T12:29:02;100571.84;;;19.14;36.27
42169;BME280;27838;43.858;25.974;2023-11-21T12:31:30;100570.34;;;19.07;36.35
42169;BME280;27838;43.858;25.974;2023-11-21T12:33:57;100574.47;;;18.90;36.23
42169;BME280;27838;43.858;25.974;2023-11-21T12:36:24;100569.78;;;18.73;36.66
42169;BME280;27838;43.858;25.974;2023-11-21T12:38:50;100569.16;;;18.66;36.86
42169;BME280;27838;43.858;25.974;2023-11-21T12:41:17;100561.44;;;18.60;37.01
42169;BME280;27838;43.858;25.974;2023-11-21T12:43:44;100553.16;;;18.46;37.09
42169;BME280;27838;43.858;25.974;2023-11-21T12:46:13;100546.38;;;18.39;37.28
42169;BME280;27838;43.858;25.974;2023-11-21T12:48:44;100549.91;;;18.38;37.33
42169;BME280;27838;43.858;25.974;2023-11-21T12:51:12;100541.16;;;18.37;37.06
42169;BME280;27838;43.858;25.974;2023-11-21T12:53:39;100535.91;;;18.36;37.05
42169;BME280;27838;43.858;25.974;2023-11-21T12:56:14;100541.94;;;18.39;37.18
42169;BME280;27838;43.858;25.974;2023-11-21T12:58:45;100531.28;;;18.42;36.91
42169;BME280;27838;43.858;25.974;2023-11-21T13:01:13;100534.69;;;18.46;37.58
42169;BME280;27838;43.858;25.974;2023-11-21T13:03:46;100536.34;;;18.48;37.55
42169;BME280;27838;43.858;25.974;2023-11-21T13:06:14;100538.81;;;18.53;37.29